Time;durP1;ratioP1;P1;durP2;ratioP2;P2;SDS_P1;SDS_P2;PMS_P1;PMS_P2;Temp;Humidity;BMP_temperature;BMP_pressure;BME280_temperature;BME280_humidity;BME280_pressure;Samples;Min_cycle;Max_cycle;Signal;HPM_P1;HPM_P2
2021/07/18 00:00:22;;;;;;;1999.90;999.90;;;512.90;2380.80;;;;;;5103357;28;20026;-85
2021/07/18 00:03:18;;;;;;;1999.90;999.90;;;512.80;2380.80;;;;;;5079789;28;20076;-83
2021/07/18 00:05:44;;;;;;;1999.90;999.90;;;512.80;2380.80;;;;;;5101300;28;20064;-76
2021/07/18 00:08:09;;;;;;;1999.90;999.90;;;512.80;2380.80;;;;;;5100828;28;20047;-84
2021/07/18 00:10:35;;;;;;;1999.90;999.90;;;512.80;2380.80;;;;;;5077476;28;20071;-76
2021/07/18 00:13:01;;;;;;;1999.90;999.90;;;512.80;2380.80;;;;;;5103183;28;20023;-80
2021/07/18 00:15:27;;;;;;;1999.90;999.90;;;512.80;2380.80;;;;;;5098052;28;20069;-76
2021/07/18 00:17:54;;;;;;;1999.90;999.90;;;512.80;2380.80;;;;;;5094211;28;20051;-82
2021/07/18 00:20:22;;;;;;;1999.90;999.90;;;512.80;2380.80;;;;;;5078938;28;20035;-80
2021/07/18 00:22:48;;;;;;;1999.90;999.90;;;512.80;2380.80;;;;;;5099113;28;20123;-76
2021/07/18 00:25:14;;;;;;;1999.90;999.90;;;512.70;2380.80;;;;;;5103542;28;20440;-77
2021/07/18 00:27:40;;;;;;;1999.90;999.90;;;512.70;2380.80;;;;;;5099471;28;20035;-77
2021/07/18 00:30:08;;;;;;;1999.90;999.90;;;512.80;2380.80;;;;;;5100314;28;20039;-80
2021/07/18 00:32:36;;;;;;;1999.90;999.90;;;512.80;2380.80;;;;;;5092481;28;20034;-82
2021/07/18 00:35:02;;;;;;;1999.90;999.90;;;512.80;2380.80;;;;;;5095851;28;20450;-76
2021/07/18 00:41:10;;;;;;;1999.90;999.90;;;512.80;2380.80;;;;;;5087985;28;20042;-84
2021/07/18 00:43:35;;;;;;;1999.90;999.90;;;512.80;2380.80;;;;;;5089788;28;20024;-86
2021/07/18 00:46:01;;;;;;;1999.90;999.90;;;512.80;2380.80;;;;;;5074579;28;20043;-84
2021/07/18 00:48:30;;;;;;;1999.90;999.90;;;512.90;2380.80;;;;;;5089999;28;20051;-85
2021/07/18 00:50:57;;;;;;;1999.90;999.90;;;512.90;2380.80;;;;;;5092544;28;20025;-85
2021/07/18 00:53:23;;;;;;;1999.90;999.90;;;512.90;2380.80;;;;;;5060944;28;20020;-79
2021/07/18 00:55:51;;;;;;;1999.90;999.90;;;512.90;2380.80;;;;;;5091663;28;20392;-80
2021/07/18 00:58:18;;;;;;;1999.90;999.90;;;512.90;2380.80;;;;;;5092192;28;20040;-77
2021/07/18 01:00:44;;;;;;;1999.90;999.90;;;537.60;2406.40;;;;;;5090219;28;20014;-76
2021/07/18 01:03:10;;;;;;;1999.90;999.90;;;537.60;2406.40;;;;;;5074377;28;20016;-81
2021/07/18 01:05:36;;;;;;;1999.90;999.90;;;512.90;2380.80;;;;;;5089638;28;20554;-85
2021/07/18 01:08:02;;;;;;;1999.90;999.90;;;537.60;2406.40;;;;;;5093819;28;20024;-87
2021/07/18 01:10:28;;;;;;;1999.90;999.90;;;537.60;2406.40;;;;;;5076321;28;20466;-87
2021/07/18 01:12:54;;;;;;;1999.90;999.90;;;537.60;2406.40;;;;;;5094178;28;20462;-87
2021/07/18 01:15:20;;;;;;;1999.90;999.90;;;512.90;2380.80;;;;;;5094227;28;20107;-87
2021/07/18 01:17:46;;;;;;;1999.90;999.90;;;512.90;2380.80;;;;;;5093832;28;20377;-82
2021/07/18 01:20:13;;;;;;;1999.90;999.90;;;537.60;2406.40;;;;;;5094393;28;20031;-86
2021/07/18 01:22:40;;;;;;;1999.90;999.90;;;537.60;2406.40;;;;;;5094025;28;20030;-82
2021/07/18 01:25:08;;;;;;;1999.90;999.90;;;537.60;2406.40;;;;;;5094084;28;20020;-76
2021/07/18 01:28:01;;;;;;;1999.90;999.90;;;512.90;2380.80;;;;;;5094168;28;20054;-80
2021/07/18 01:30:27;;;;;;;1999.90;999.90;;;512.90;2380.80;;;;;;5078836;28;20036;-82
2021/07/18 01:33:51;;;;;;;1999.90;999.90;;;512.90;2380.80;;;;;;5094110;28;20020;-80
2021/07/18 01:36:17;;;;;;;1999.90;999.90;;;512.90;2380.80;;;;;;5093663;28;20489;-77
2021/07/18 01:38:43;;;;;;;1999.90;999.90;;;512.90;2380.80;;;;;;5094031;28;20031;-78
2021/07/18 01:41:09;;;;;;;1999.90;999.90;;;537.60;2406.40;;;;;;5094116;28;20042;-76
2021/07/18 01:43:35;;;;;;;1999.90;999.90;;;537.60;2406.40;;;;;;5094012;28;20024;-85
2021/07/18 01:46:00;;;;;;;1999.90;999.90;;;537.60;2406.40;;;;;;5093386;28;20051;-86
2021/07/18 01:48:26;;;;;;;1999.90;999.90;;;512.90;2380.80;;;;;;5075481;28;20024;-80
2021/07/18 01:50:52;;;;;;;1999.90;999.90;;;537.60;2406.40;;;;;;5093693;28;20016;-76
2021/07/18 01:53:17;;;;;;;1999.90;999.90;;;512.90;2380.80;;;;;;5093650;28;20031;-85
2021/07/18 01:55:43;;;;;;;1999.90;999.90;;;512.90;2380.80;;;;;;5090106;28;20018;-86
2021/07/18 01:58:09;;;;;;;1999.90;999.90;;;537.60;2406.40;;;;;;5086005;28;20389;-86
2021/07/18 02:00:35;;;;;;;1999.90;999.90;;;512.90;2380.80;;;;;;5093400;28;20024;-77
2021/07/18 02:03:29;;;;;;;1999.90;999.90;;;537.60;2406.40;;;;;;5094088;28;20027;-81
2021/07/18 02:09:20;;;;;;;1999.90;999.90;;;537.60;2406.40;;;;;;5075880;28;20081;-76
2021/07/18 02:11:45;;;;;;;1999.90;999.90;;;537.60;2406.40;;;;;;5093429;28;20020;-80
2021/07/18 02:14:11;;;;;;;1999.90;999.90;;;537.60;2406.40;;;;;;5093175;28;20558;-81
2021/07/18 02:16:37;;;;;;;1999.90;999.90;;;512.90;2380.80;;;;;;5093130;28;20067;-80
2021/07/18 02:19:10;;;;;;;1999.90;999.90;;;512.90;2380.80;;;;;;5092299;28;20023;-75
2021/07/18 02:22:43;;;;;;;1999.90;999.90;;;512.90;2380.80;;;;;;5092864;28;20371;-80
2021/07/18 02:25:54;;;;;;;1999.90;999.90;;;512.90;2380.80;;;;;;5076581;28;20028;-81
2021/07/18 02:28:28;;;;;;;1999.90;999.90;;;512.90;2380.80;;;;;;5030641;28;20386;-82
2021/07/18 02:30:56;;;;;;;1999.90;999.90;;;512.90;2380.80;;;;;;5093067;28;20048;-87
2021/07/18 02:33:22;;;;;;;1999.90;999.90;;;512.90;2380.80;;;;;;5058242;28;20025;-86
2021/07/18 02:35:48;;;;;;;1999.90;999.90;;;512.90;2380.80;;;;;;5093095;28;20031;-77
2021/07/18 02:38:14;;;;;;;1999.90;999.90;;;512.90;2380.80;;;;;;5092785;28;20028;-80
2021/07/18 02:40:40;;;;;;;1999.90;999.90;;;512.90;2380.80;;;;;;5092804;28;20359;-81
2021/07/18 02:43:06;;;;;;;1999.90;999.90;;;512.90;2380.80;;;;;;5092684;28;20027;-81
2021/07/18 02:45:32;;;;;;;1999.90;999.90;;;512.90;2380.80;;;;;;5092670;28;20016;-76
2021/07/18 02:47:59;;;;;;;1999.90;999.90;;;512.80;2380.80;;;;;;5092751;28;20494;-83
2021/07/18 02:50:27;;;;;;;1999.90;999.90;;;512.90;2380.80;;;;;;5074121;28;20480;-85
2021/07/18 02:52:53;;;;;;;1999.90;999.90;;;512.80;2380.80;;;;;;5092751;28;20474;-86
2021/07/18 02:55:20;;;;;;;1999.90;999.90;;;512.70;2380.80;;;;;;5074356;28;20040;-86
2021/07/18 02:57:47;;;;;;;1999.90;999.90;;;512.70;2380.80;;;;;;5092428;28;20031;-76
2021/07/18 03:00:18;;;;;;;1999.90;999.90;;;512.70;2380.80;;;;;;5086657;28;20103;-83
2021/07/18 03:02:45;;;;;;;1999.90;999.90;;;512.70;2380.80;;;;;;5090883;28;20051;-82
2021/07/18 03:05:12;;;;;;;1999.90;999.90;;;512.70;2380.80;;;;;;5062732;28;20082;-82
2021/07/18 03:07:42;;;;;;;1999.90;999.90;;;512.70;2380.80;;;;;;5072352;28;20013;-81
2021/07/18 03:10:09;;;;;;;1999.90;999.90;;;512.70;2380.80;;;;;;5086514;28;20021;-75
2021/07/18 03:12:35;;;;;;;1999.90;999.90;;;512.70;2380.80;;;;;;5072384;28;20504;-75
2021/07/18 03:15:03;;;;;;;1999.90;999.90;;;512.70;2380.80;;;;;;5072290;28;20033;-76
2021/07/18 03:17:29;;;;;;;1999.90;999.90;;;512.70;2380.80;;;;;;5079560;28;20085;-76
2021/07/18 03:19:55;;;;;;;1999.90;999.90;;;512.70;2380.80;;;;;;5078811;28;20028;-76
2021/07/18 03:22:21;;;;;;;1999.90;999.90;;;512.70;2380.80;;;;;;5071984;28;20024;-76
2021/07/18 03:25:13;;;;;;;1999.90;999.90;;;512.70;2380.80;;;;;;5072221;28;20056;-80
2021/07/18 03:30:45;;;;;;;1999.90;999.90;;;512.70;2380.80;;;;;;5088598;28;20071;-80
2021/07/18 03:33:11;;;;;;;1999.90;999.90;;;512.70;2380.80;;;;;;5076041;28;20052;-80
2021/07/18 03:35:36;;;;;;;1999.90;999.90;;;512.70;2380.80;;;;;;5090057;28;20032;-85
2021/07/18 03:38:02;;;;;;;1999.90;999.90;;;512.70;2380.80;;;;;;5075827;28;20024;-87
2021/07/18 03:40:28;;;;;;;1999.90;999.90;;;512.70;2380.80;;;;;;5075887;28;20025;-87
2021/07/18 03:42:55;;;;;;;1999.90;999.90;;;512.70;2380.80;;;;;;5090019;28;20021;-86
2021/07/18 03:45:21;;;;;;;1999.90;999.90;;;512.70;2380.80;;;;;;5070229;28;20076;-86
2021/07/18 03:47:47;;;;;;;1999.90;999.90;;;512.70;2380.80;;;;;;5077244;28;20028;-86
2021/07/18 03:50:14;;;;;;;1999.90;999.90;;;512.80;2380.80;;;;;;5068183;28;20451;-85
2021/07/18 03:52:40;;;;;;;1999.90;999.90;;;512.80;2380.80;;;;;;5079066;28;20067;-80
2021/07/18 03:55:06;;;;;;;1999.90;999.90;;;512.80;2380.80;;;;;;5075492;28;20123;-79
2021/07/18 03:57:32;;;;;;;1999.90;999.90;;;512.80;2380.80;;;;;;5075493;28;20025;-79
2021/07/18 03:59:58;;;;;;;1999.90;999.90;;;512.80;2380.80;;;;;;5075435;28;20054;-83
2021/07/18 04:02:23;;;;;;;1999.90;999.90;;;512.90;2380.80;;;;;;5075411;28;20028;-85
2021/07/18 04:04:49;;;;;;;1999.90;999.90;;;512.90;2380.80;;;;;;5075486;28;20028;-85
2021/07/18 04:07:15;;;;;;;1999.90;999.90;;;512.90;2380.80;;;;;;5075399;28;20021;-88
2021/07/18 04:09:41;;;;;;;1999.90;999.90;;;512.90;2380.80;;;;;;5071443;28;20031;-86
2021/07/18 04:12:07;;;;;;;1999.90;999.90;;;512.90;2380.80;;;;;;5075186;28;20032;-86
2021/07/18 04:14:33;;;;;;;1999.90;999.90;;;512.90;2380.80;;;;;;5075411;28;20498;-86
2021/07/18 04:16:59;;;;;;;1999.90;999.90;;;512.90;2380.80;;;;;;5075317;28;20048;-86
2021/07/18 04:19:25;;;;;;;1999.90;999.90;;;512.90;2380.80;;;;;;5075286;28;20044;-80
2021/07/18 04:21:51;;;;;;;1999.90;999.90;;;512.90;2380.80;;;;;;5075203;28;20065;-84
2021/07/18 04:24:16;;;;;;;1999.90;999.90;;;512.90;2380.80;;;;;;5075302;28;20466;-76
2021/07/18 04:26:42;;;;;;;1999.90;999.90;;;512.90;2380.80;;;;;;5075025;28;20463;-81
2021/07/18 04:29:08;;;;;;;1999.90;999.90;;;512.90;2380.80;;;;;;5075191;28;20068;-81
2021/07/18 04:31:34;;;;;;;1999.90;999.90;;;512.90;2380.80;;;;;;5075204;28;20021;-76
2021/07/18 04:34:45;;;;;;;1999.90;999.90;;;512.90;2380.80;;;;;;5074985;28;20042;-80
2021/07/18 04:37:12;;;;;;;1999.90;999.90;;;512.90;2380.80;;;;;;5053245;28;20127;-86
2021/07/18 04:39:38;;;;;;;1999.90;999.90;;;512.90;2380.80;;;;;;5074923;28;20394;-86
2021/07/18 04:42:04;;;;;;;1999.90;999.90;;;537.60;2406.40;;;;;;5073757;28;20025;-86
2021/07/18 04:44:30;;;;;;;1999.90;999.90;;;512.90;2380.80;;;;;;5074812;28;20013;-80
2021/07/18 04:46:57;;;;;;;1999.90;999.90;;;512.90;2380.80;;;;;;5074513;28;20082;-84
2021/07/18 04:49:23;;;;;;;1999.90;999.90;;;537.60;2406.40;;;;;;5056877;28;20111;-83
2021/07/18 04:51:49;;;;;;;1999.90;999.90;;;537.70;2406.40;;;;;;5074868;28;20100;-77
2021/07/18 04:54:15;;;;;;;1999.90;999.90;;;537.70;2406.40;;;;;;5074680;28;20108;-81
2021/07/18 04:56:41;;;;;;;1999.90;999.90;;;537.70;2406.40;;;;;;5074768;28;20025;-80
2021/07/18 04:59:07;;;;;;;1999.90;999.90;;;537.70;2406.40;;;;;;5074210;28;20399;-76
2021/07/18 05:01:33;;;;;;;1999.90;999.90;;;537.80;2406.40;;;;;;5075045;28;20479;-85
2021/07/18 05:03:58;;;;;;;1999.90;999.90;;;537.80;2406.40;;;;;;5056486;28;20024;-76
2021/07/18 05:06:24;;;;;;;1999.90;999.90;;;537.80;2406.40;;;;;;5074479;28;20023;-80
2021/07/18 05:08:50;;;;;;;1999.90;999.90;;;537.80;2406.40;;;;;;5082870;28;20019;-76
2021/07/18 05:11:19;;;;;;;1999.90;999.90;;;537.80;2406.40;;;;;;5079763;28;20098;-80
2021/07/18 05:13:45;;;;;;;1999.90;999.90;;;537.80;2406.40;;;;;;5074389;28;20078;-79
2021/07/18 05:16:11;;;;;;;1999.90;999.90;;;537.90;2406.40;;;;;;5073997;28;20024;-80
2021/07/18 05:18:37;;;;;;;1999.90;999.90;;;537.90;2406.40;;;;;;5073916;28;20109;-81
2021/07/18 05:21:03;;;;;;;1999.90;999.90;;;537.90;2406.40;;;;;;5073990;28;20099;-81
2021/07/18 05:23:28;;;;;;;1999.90;999.90;;;538.00;2406.40;;;;;;5073932;28;20100;-85
2021/07/18 05:25:54;;;;;;;1999.90;999.90;;;538.00;2406.40;;;;;;5073895;28;20048;-84
2021/07/18 05:28:20;;;;;;;1999.90;999.90;;;538.00;2406.40;;;;;;5070070;28;20393;-85
2021/07/18 05:30:46;;;;;;;1999.90;999.90;;;538.00;2406.40;;;;;;5073871;28;20051;-85
2021/07/18 05:33:12;;;;;;;1999.90;999.90;;;538.10;2406.40;;;;;;5073760;28;20024;-83
2021/07/18 05:35:38;;;;;;;1999.90;999.90;;;538.10;2406.40;;;;;;5073590;28;20020;-81
2021/07/18 05:38:04;;;;;;;1999.90;999.90;;;538.10;2406.40;;;;;;5073659;28;20016;-79
2021/07/18 05:40:30;;;;;;;1999.90;999.90;;;538.20;2406.40;;;;;;5073503;28;20363;-80
2021/07/18 05:42:56;;;;;;;1999.90;999.90;;;538.20;2406.40;;;;;;5073822;28;20051;-84
2021/07/18 05:45:22;;;;;;;1999.90;999.90;;;538.20;2406.40;;;;;;5069698;28;20028;-85
2021/07/18 05:47:48;;;;;;;1999.90;999.90;;;538.20;2406.40;;;;;;5055646;28;20016;-84
2021/07/18 05:50:14;;;;;;;1999.90;999.90;;;538.30;2406.40;;;;;;5073732;28;20031;-85
2021/07/18 05:52:40;;;;;;;1999.90;999.90;;;538.30;2406.40;;;;;;5073388;28;20525;-84
2021/07/18 05:55:07;;;;;;;1999.90;999.90;;;538.20;2406.40;;;;;;5073350;28;20082;-83
2021/07/18 05:57:33;;;;;;;1999.90;999.90;;;538.30;2406.40;;;;;;5073430;28;20091;-85
2021/07/18 05:59:59;;;;;;;1999.90;999.90;;;538.30;2406.40;;;;;;5073442;28;20035;-84
2021/07/18 06:02:25;;;;;;;1999.90;999.90;;;538.30;2406.40;;;;;;5055954;28;20033;-83
2021/07/18 06:04:51;;;;;;;1999.90;999.90;;;538.30;2406.40;;;;;;5104586;28;20020;-79
2021/07/18 06:07:16;;;;;;;1999.90;999.90;;;538.40;2406.40;;;;;;5092083;28;20032;-79
2021/07/18 06:09:42;;;;;;;1999.90;999.90;;;538.40;2406.40;;;;;;5089901;28;20081;-83
2021/07/18 06:12:08;;;;;;;1999.90;999.90;;;538.40;2406.40;;;;;;5073183;28;20032;-85
2021/07/18 06:14:34;;;;;;;1999.90;999.90;;;538.40;2406.40;;;;;;5072622;28;20042;-75
2021/07/18 06:17:00;;;;;;;1999.90;999.90;;;538.50;2406.40;;;;;;5072717;28;20028;-76
2021/07/18 06:19:26;;;;;;;1999.90;999.90;;;538.50;2406.40;;;;;;5072862;28;20117;-76
2021/07/18 06:21:51;;;;;;;1999.90;999.90;;;538.50;2406.40;;;;;;5072809;28;20096;-85
2021/07/18 06:24:17;;;;;;;1999.90;999.90;;;563.20;2432.00;;;;;;5073065;28;20504;-76
2021/07/18 06:26:43;;;;;;;1999.90;999.90;;;563.20;2432.00;;;;;;5073225;28;20390;-79
2021/07/18 06:29:09;;;;;;;1999.90;999.90;;;563.20;2432.00;;;;;;5073108;28;20048;-75
2021/07/18 06:31:34;;;;;;;1999.90;999.90;;;563.30;2432.00;;;;;;5073061;28;20107;-81
2021/07/18 06:34:00;;;;;;;1999.90;999.90;;;563.30;2432.00;;;;;;5086872;28;20111;-80
2021/07/18 06:36:26;;;;;;;1999.90;999.90;;;563.40;2432.00;;;;;;5072637;28;20036;-76
2021/07/18 06:38:52;;;;;;;1999.90;999.90;;;563.40;2432.00;;;;;;5073053;28;20025;-80
2021/07/18 06:41:17;;;;;;;1999.90;999.90;;;563.40;2432.00;;;;;;5072607;28;20633;-80
2021/07/18 06:43:43;;;;;;;1999.90;999.90;;;563.50;2432.00;;;;;;5072732;28;20028;-80
2021/07/18 06:46:09;;;;;;;1999.90;999.90;;;563.50;2432.00;;;;;;5072581;28;20474;-78
2021/07/18 06:48:35;;;;;;;1999.90;999.90;;;563.50;2432.00;;;;;;5072690;28;20471;-79
2021/07/18 06:51:00;;;;;;;1999.90;999.90;;;563.50;2432.00;;;;;;5054643;28;20013;-79
2021/07/18 06:53:26;;;;;;;1999.90;999.90;;;563.50;2432.00;;;;;;5072506;28;20036;-79
2021/07/18 06:55:52;;;;;;;1999.90;999.90;;;563.50;2432.00;;;;;;5072606;28;20013;-86
2021/07/18 06:58:18;;;;;;;1999.90;999.90;;;563.50;2432.00;;;;;;5072563;28;20471;-85
2021/07/18 07:00:43;;;;;;;1999.90;999.90;;;563.50;2432.00;;;;;;5072468;28;20493;-86
2021/07/18 07:03:09;;;;;;;1999.90;999.90;;;563.50;2432.00;;;;;;5054476;28;20509;-86
2021/07/18 07:05:36;;;;;;;1999.90;999.90;;;563.50;2432.00;;;;;;5053862;28;20426;-85
2021/07/18 07:08:02;;;;;;;1999.90;999.90;;;563.50;2432.00;;;;;;5074424;28;20505;-85
2021/07/18 07:10:28;;;;;;;1999.90;999.90;;;563.50;2432.00;;;;;;5084577;28;20017;-85
2021/07/18 07:12:53;;;;;;;1999.90;999.90;;;563.50;2432.00;;;;;;5054216;28;20551;-86
2021/07/18 07:15:19;;;;;;;1999.90;999.90;;;563.50;2432.00;;;;;;5102225;28;20034;-85
2021/07/18 07:17:45;;;;;;;1999.90;999.90;;;563.50;2432.00;;;;;;5090920;28;20504;-83
2021/07/18 07:20:12;;;;;;;1999.90;999.90;;;563.50;2432.00;;;;;;5088936;28;20047;-84
2021/07/18 07:22:38;;;;;;;1999.90;999.90;;;563.50;2432.00;;;;;;5090678;28;20433;-84
2021/07/18 07:25:10;;;;;;;1999.90;999.90;;;563.50;2432.00;;;;;;5089109;28;20028;-84
2021/07/18 07:27:36;;;;;;;1999.90;999.90;;;563.50;2432.00;;;;;;5091673;28;20082;-86
2021/07/18 07:30:04;;;;;;;1999.90;999.90;;;563.50;2432.00;;;;;;5091607;28;20044;-77
2021/07/18 07:32:30;;;;;;;1999.90;999.90;;;563.50;2432.00;;;;;;5093640;28;20012;-78
2021/07/18 07:34:56;;;;;;;1999.90;999.90;;;563.50;2432.00;;;;;;5093070;28;20024;-78
2021/07/18 07:37:24;;;;;;;1999.90;999.90;;;563.50;2432.00;;;;;;5080888;28;20031;-82
2021/07/18 07:39:52;;;;;;;1999.90;999.90;;;563.50;2432.00;;;;;;5083984;28;20534;-78
2021/07/18 07:42:19;;;;;;;1999.90;999.90;;;563.50;2432.00;;;;;;5102267;28;20028;-78
2021/07/18 07:44:45;;;;;;;1999.90;999.90;;;563.50;2432.00;;;;;;5091094;28;20020;-77
2021/07/18 07:47:11;;;;;;;1999.90;999.90;;;563.50;2432.00;;;;;;5088281;28;20025;-75
2021/07/18 07:49:37;;;;;;;1999.90;999.90;;;563.60;2432.00;;;;;;5090439;28;20072;-79
2021/07/18 07:52:03;;;;;;;1999.90;999.90;;;563.50;2432.00;;;;;;5089870;28;20067;-79
2021/07/18 07:54:29;;;;;;;1999.90;999.90;;;563.60;2432.00;;;;;;5089342;28;20020;-79
2021/07/18 07:56:55;;;;;;;1999.90;999.90;;;563.60;2432.00;;;;;;5089858;28;20023;-80
2021/07/18 07:59:20;;;;;;;1999.90;999.90;;;563.60;2432.00;;;;;;5087204;28;20439;-84
2021/07/18 08:01:46;;;;;;;1999.90;999.90;;;563.60;2432.00;;;;;;5092442;28;20084;-85
2021/07/18 08:04:12;;;;;;;1999.90;999.90;;;563.60;2432.00;;;;;;5080649;28;20055;-85
2021/07/18 08:06:38;;;;;;;1999.90;999.90;;;563.60;2432.00;;;;;;5073805;28;20025;-86
2021/07/18 08:09:04;;;;;;;1999.90;999.90;;;563.60;2432.00;;;;;;5084373;28;20020;-85
2021/07/18 08:11:30;;;;;;;1999.90;999.90;;;563.60;2432.00;;;;;;5057183;28;20422;-86
2021/07/18 08:13:55;;;;;;;1999.90;999.90;;;563.60;2432.00;;;;;;5102491;28;20024;-76
2021/07/18 08:16:21;;;;;;;1999.90;999.90;;;563.60;2432.00;;;;;;5096097;28;20035;-74
2021/07/18 08:18:47;;;;;;;1999.90;999.90;;;563.70;2432.00;;;;;;5081908;28;20028;-74
2021/07/18 08:21:13;;;;;;;1999.90;999.90;;;563.70;2432.00;;;;;;5095015;28;20478;-78
2021/07/18 08:23:38;;;;;;;1999.90;999.90;;;563.80;2432.00;;;;;;5094614;28;20024;-79
2021/07/18 08:26:05;;;;;;;1999.90;999.90;;;563.80;2432.00;;;;;;5095133;28;20103;-84
2021/07/18 08:28:30;;;;;;;1999.90;999.90;;;563.80;2432.00;;;;;;5094310;28;20020;-85
2021/07/18 08:30:56;;;;;;;1999.90;999.90;;;563.80;2432.00;;;;;;5099183;28;20026;-74
2021/07/18 08:33:22;;;;;;;1999.90;999.90;;;563.90;2432.00;;;;;;5091580;28;20020;-75
2021/07/18 08:35:48;;;;;;;1999.90;999.90;;;563.90;2432.00;;;;;;5112430;28;20541;-79
2021/07/18 08:38:14;;;;;;;1999.90;999.90;;;563.90;2432.00;;;;;;5113996;28;20389;-84
2021/07/18 08:40:39;;;;;;;1999.90;999.90;;;564.00;2432.00;;;;;;5108363;28;20020;-75
2021/07/18 08:43:06;;;;;;;1999.90;999.90;;;563.90;2432.00;;;;;;5104748;28;20066;-74
2021/07/18 08:45:32;;;;;;;1999.90;999.90;;;564.00;2432.00;;;;;;5098321;28;20066;-86
2021/07/18 08:47:58;;;;;;;1999.90;999.90;;;564.00;2432.00;;;;;;5096928;28;20387;-76
2021/07/18 08:50:24;;;;;;;1999.90;999.90;;;564.00;2432.00;;;;;;5102385;28;20020;-78
2021/07/18 08:52:54;;;;;;;1999.90;999.90;;;564.10;2432.00;;;;;;5079192;28;20023;-87
2021/07/18 08:55:25;;;;;;;1999.90;999.90;;;588.80;2432.00;;;;;;5106405;28;20027;-75
2021/07/18 08:57:52;;;;;;;1999.90;999.90;;;588.80;2432.00;;;;;;5108656;28;20027;-75
2021/07/18 09:00:18;;;;;;;1999.90;999.90;;;588.90;2432.00;;;;;;5112289;28;20023;-74
2021/07/18 09:02:44;;;;;;;1999.90;999.90;;;589.00;2432.00;;;;;;5109920;28;20036;-82
2021/07/18 09:05:11;;;;;;;1999.90;999.90;;;589.10;2432.00;;;;;;5111506;28;20028;-77
2021/07/18 09:07:51;;;;;;;1999.90;999.90;;;589.20;2432.00;;;;;;5111697;28;20657;-76
2021/07/18 09:10:21;;;;;;;;;;;589.20;2432.00;;;;;;5111905;28;20756;-76
2021/07/18 09:13:05;;;;;;;1999.90;999.90;;;589.20;2432.00;;;;;;5111772;28;20366;-75
2021/07/18 09:15:46;;;;;;;1999.90;999.90;;;589.20;2432.00;;;;;;5110566;28;20026;-79
2021/07/18 09:18:18;;;;;;;1999.90;999.90;;;589.20;2432.00;;;;;;5109707;28;20019;-76
2021/07/18 09:20:49;;;;;;;1999.90;999.90;;;589.30;2432.00;;;;;;5104967;28;20076;-76
2021/07/18 09:23:20;;;;;;;1999.90;999.90;;;589.50;2432.00;;;;;;5107793;28;20015;-75
2021/07/18 09:25:47;;;;;;;1999.90;999.90;;;589.70;2432.00;;;;;;5110526;28;20030;-75
2021/07/18 09:28:18;;;;;;;1999.90;999.90;;;589.70;2432.00;;;;;;5111678;28;20116;-77
2021/07/18 09:30:45;;;;;;;1999.90;999.90;;;614.40;2432.00;;;;;;5104224;28;20398;-74
2021/07/18 09:33:25;;;;;;;1999.90;999.90;;;614.60;2432.00;;;;;;5112719;28;20026;-75
2021/07/18 09:35:51;;;;;;;1999.90;999.90;;;614.60;2432.00;;;;;;5087524;28;20111;-85
2021/07/18 09:38:25;;;;;;;1999.90;999.90;;;614.80;2432.00;;;;;;5080632;28;20107;-82
2021/07/18 09:40:59;;;;;;;1999.90;999.90;;;615.20;2432.00;;;;;;5104251;28;20029;-81
2021/07/18 09:43:28;;;;;;;1999.90;999.90;;;615.30;2432.00;;;;;;5111987;28;20076;-74
2021/07/18 09:46:06;;;;;;;1999.90;999.90;;;615.30;2432.00;;;;;;5110043;28;20019;-76
2021/07/18 09:48:46;;;;;;;1999.90;999.90;;;640.00;2432.00;;;;;;5108134;28;20028;-75
2021/07/18 09:51:14;;;;;;;1999.90;999.90;;;640.10;2432.00;;;;;;5108203;28;20027;-80
2021/07/18 09:53:43;;;;;;;1999.90;999.90;;;640.10;2432.00;;;;;;5108017;28;20016;-77
2021/07/18 09:56:17;;;;;;;1999.90;999.90;;;640.10;2432.00;;;;;;5107883;28;20501;-79
2021/07/18 09:58:54;;;;;;;1999.90;999.90;;;640.10;2432.00;;;;;;5107627;28;20036;-77
2021/07/18 10:01:21;;;;;;;1999.90;999.90;;;640.00;2432.00;;;;;;5095721;28;20768;-76
2021/07/18 10:03:49;;;;;;;1999.90;999.90;;;615.30;2432.00;;;;;;5109780;28;20055;-75
2021/07/18 10:06:18;;;;;;;1999.90;999.90;;;615.30;2432.00;;;;;;5099009;28;20031;-74
2021/07/18 10:08:46;;;;;;;1999.90;999.90;;;615.30;2432.00;;;;;;5093156;28;20027;-75
2021/07/18 10:11:14;;;;;;;1999.90;999.90;;;615.20;2432.00;;;;;;5094210;28;20228;-74
2021/07/18 10:13:41;;;;;;;1999.90;999.90;;;615.20;2432.00;;;;;;5094254;28;20026;-74
2021/07/18 10:16:08;;;;;;;1999.90;999.90;;;615.20;2432.00;;;;;;5091180;28;20036;-74
2021/07/18 10:18:36;;;;;;;1999.90;999.90;;;615.20;2432.00;;;;;;5102977;28;20028;-76
2021/07/18 10:21:03;;;;;;;1999.90;999.90;;;615.20;2432.00;;;;;;5111495;28;20019;-77
2021/07/18 10:23:29;;;;;;;1999.90;999.90;;;615.20;2432.00;;;;;;5103780;28;20091;-77
2021/07/18 10:25:56;;;;;;;1999.90;999.90;;;615.20;2432.00;;;;;;5086348;28;20411;-77
2021/07/18 10:28:25;;;;;;;1999.90;999.90;;;615.20;2432.00;;;;;;5098189;28;20015;-80
2021/07/18 10:30:56;;;;;;;1999.90;999.90;;;615.20;2432.00;;;;;;5083739;28;20047;-78
2021/07/18 10:33:22;;;;;;;1999.90;999.90;;;615.20;2432.00;;;;;;5083235;28;20020;-76
2021/07/18 10:35:52;;;;;;;1999.90;999.90;;;615.30;2432.00;;;;;;5080069;28;20059;-80
2021/07/18 10:38:25;;;;;;;1999.90;999.90;;;615.30;2432.00;;;;;;5112935;28;20030;-81
2021/07/18 10:40:53;;;;;;;1999.90;999.90;;;615.30;2432.00;;;;;;5106978;28;20470;-85
2021/07/18 10:43:44;;;;;;;1999.90;999.90;;;640.10;2432.00;;;;;;5086584;28;20024;-86
2021/07/18 10:46:13;;;;;;;1999.90;999.90;;;640.20;2432.00;;;;;;5072840;28;20025;-81
2021/07/18 10:48:52;;;;;;;1999.90;999.90;;;640.30;2432.00;;;;;;5091364;28;20095;-81
2021/07/18 10:51:20;;;;;;;1999.90;999.90;;;640.50;2432.00;;;;;;5097819;28;20478;-76
2021/07/18 10:53:48;;;;;;;1999.90;999.90;;;640.70;2432.00;;;;;;5092687;28;20051;-85
2021/07/18 10:56:18;;;;;;;1999.90;999.90;;;640.90;2432.00;;;;;;5092803;28;20452;-76
2021/07/18 10:58:46;;;;;;;;;;;640.90;2432.00;;;;;;5093674;28;20367;-74
2021/07/18 11:01:11;;;;;;;1999.90;999.90;;;640.70;2432.00;;;;;;5077713;28;20377;-80
2021/07/18 11:03:39;;;;;;;1999.90;999.90;;;640.60;2432.00;;;;;;5080397;28;20038;-78
2021/07/18 11:06:28;;;;;;;1999.90;999.90;;;640.50;2432.00;;;;;;5079912;28;20020;-74
2021/07/18 11:09:08;;;;;;;1999.90;999.90;;;640.50;2432.00;;;;;;5087260;28;20024;-74
2021/07/18 11:11:49;;;;;;;1999.90;999.90;;;640.50;2432.00;;;;;;5075513;28;20066;-75
2021/07/18 11:14:25;;;;;;;1999.90;999.90;;;640.60;2432.00;;;;;;5095337;28;20035;-76
2021/07/18 11:16:54;;;;;;;1999.90;999.90;;;640.70;2432.00;;;;;;5105527;28;20095;-76
2021/07/18 11:19:37;;;;;;;1999.90;999.90;;;640.80;2432.00;;;;;;5094802;28;20032;-80
2021/07/18 11:22:12;;;;;;;1999.90;999.90;;;640.70;2432.00;;;;;;5079907;28;20099;-78
2021/07/18 11:24:57;;;;;;;1999.90;999.90;;;640.70;2432.00;;;;;;5085469;28;20105;-78
2021/07/18 11:27:35;;;;;;;1999.90;999.90;;;640.70;2432.00;;;;;;5079723;28;20479;-76
2021/07/18 11:30:05;;;;;;;1999.90;999.90;;;640.70;2432.00;;;;;;5084100;28;20051;-81
2021/07/18 11:32:33;;;;;;;1999.90;999.90;;;640.80;2432.00;;;;;;5075023;28;20024;-81
2021/07/18 11:35:00;;;;;;;1999.90;999.90;;;640.90;2432.00;;;;;;5111264;28;20094;-74
2021/07/18 11:37:29;;;;;;;1999.90;999.90;;;665.60;2432.00;;;;;;5089022;28;20029;-74
2021/07/18 11:40:09;;;;;;;1999.90;999.90;;;665.70;2432.00;;;;;;5091220;28;20062;-76
2021/07/18 11:42:35;;;;;;;1999.90;999.90;;;665.90;2432.00;;;;;;5087247;28;20482;-75
2021/07/18 11:45:06;;;;;;;1999.90;999.90;;;666.00;2432.00;;;;;;5089132;28;20039;-77
2021/07/18 11:47:32;;;;;;;1999.90;999.90;;;666.10;2432.00;;;;;;5093652;28;20039;-79
2021/07/18 11:49:58;;;;;;;1999.90;999.90;;;666.10;2432.00;;;;;;5106669;28;20505;-75